createdAt,value
2022-08-17T00:02:26.614Z,5.75
2022-08-17T00:04:55.301Z,5.32
2022-08-17T00:07:23.148Z,5.50
2022-08-17T00:09:50.541Z,5.70
2022-08-17T00:12:41.605Z,5.63
2022-08-17T00:15:10.682Z,6.40
2022-08-17T00:17:38.421Z,6.80
2022-08-17T00:20:06.522Z,6.35
2022-08-17T00:22:36.312Z,5.43
2022-08-17T00:25:07.303Z,5.95
2022-08-17T00:27:35.578Z,6.25
2022-08-17T00:30:05.186Z,5.78
2022-08-17T00:33:23.009Z,5.63
2022-08-17T00:35:33.328Z,6.03
2022-08-17T00:38:00.664Z,5.82
2022-08-17T00:40:44.548Z,5.38
2022-08-17T00:43:30.479Z,6.18
2022-08-17T00:45:58.461Z,6.15
2022-08-17T00:48:29.945Z,5.75
2022-08-17T00:51:16.561Z,6.07
2022-08-17T00:53:48.044Z,5.95
2022-08-17T00:56:19.402Z,7.63
2022-08-17T00:58:46.852Z,6.00
2022-08-17T01:01:21.179Z,6.97
2022-08-17T01:03:50.616Z,7.00
2022-08-17T01:06:17.931Z,6.50
2022-08-17T01:08:45.404Z,6.20
2022-08-17T01:11:12.989Z,6.82
2022-08-17T01:13:42.229Z,6.30
2022-08-17T01:16:26.010Z,7.75
2022-08-17T01:18:55.146Z,6.63
2022-08-17T01:21:44.077Z,7.13
2022-08-17T01:24:11.325Z,7.30
2022-08-17T01:26:39.370Z,6.47
2022-08-17T01:29:06.743Z,7.60
2022-08-17T01:31:40.106Z,6.75
2022-08-17T01:34:09.596Z,6.75
2022-08-17T01:36:37.957Z,7.15
2022-08-17T01:39:06.299Z,7.70
2022-08-17T01:41:34.468Z,7.97
2022-08-17T01:44:02.929Z,7.50
2022-08-17T01:46:33.483Z,7.18
2022-08-17T01:49:01.235Z,7.10
2022-08-17T01:51:33.128Z,7.05
2022-08-17T01:54:03.474Z,7.28
2022-08-17T01:56:31.006Z,8.05
2022-08-17T01:58:58.510Z,7.63
2022-08-17T02:01:27.635Z,8.18
2022-08-17T02:04:00.977Z,6.97
2022-08-17T02:06:31.387Z,7.90
2022-08-17T02:09:02.231Z,7.75
2022-08-17T02:11:33.287Z,8.48
2022-08-17T02:14:03.334Z,8.05
2022-08-17T02:16:37.110Z,8.20
2022-08-17T02:19:07.031Z,8.10
2022-08-17T02:21:36.277Z,8.38
2022-08-17T02:24:04.509Z,7.78
2022-08-17T02:26:32.751Z,8.30
2022-08-17T02:29:00.154Z,8.82
2022-08-17T02:31:27.394Z,8.00
2022-08-17T02:34:00.243Z,8.20
2022-08-17T02:36:33.272Z,8.90
2022-08-17T02:39:10.802Z,8.07
2022-08-17T02:41:38.446Z,8.07
2022-08-17T02:44:06.258Z,8.10
2022-08-17T02:46:33.644Z,7.50
2022-08-17T02:49:04.384Z,7.57
2022-08-17T02:51:31.740Z,8.00
2022-08-17T02:54:02.210Z,8.55
2022-08-17T02:56:46.315Z,8.40
2022-08-17T02:59:14.680Z,8.52
2022-08-17T03:01:42.163Z,8.40
2022-08-17T03:04:09.620Z,8.75
2022-08-17T03:06:37.926Z,7.93
2022-08-17T03:09:05.354Z,8.77
2022-08-17T03:11:33.191Z,8.23
2022-08-17T03:14:00.511Z,7.70
2022-08-17T03:16:27.809Z,8.32
2022-08-17T03:18:55.169Z,8.85
2022-08-17T03:21:22.483Z,8.93
2022-08-17T03:23:49.861Z,10.13
2022-08-17T03:26:22.388Z,9.70
2022-08-17T03:28:49.713Z,10.85
2022-08-17T03:31:18.459Z,12.40
2022-08-17T03:33:45.777Z,12.38
2022-08-17T03:36:13.225Z,11.07
2022-08-17T03:38:40.484Z,9.95
2022-08-17T03:41:08.911Z,10.20
2022-08-17T03:43:36.186Z,9.13
2022-08-17T03:46:28.178Z,9.38
2022-08-17T03:49:26.877Z,9.80
2022-08-17T03:54:59.040Z,8.80
2022-08-17T03:57:26.346Z,8.75
2022-08-17T03:59:54.561Z,9.02
2022-08-17T04:02:24.922Z,9.57
2022-08-17T04:04:52.483Z,11.23
2022-08-17T04:07:20.870Z,9.48
2022-08-17T04:09:48.225Z,9.48
2022-08-17T04:12:21.515Z,9.75
2022-08-17T04:14:53.365Z,9.82
2022-08-17T04:17:23.252Z,10.23
2022-08-17T04:19:50.599Z,9.90
2022-08-17T04:22:31.183Z,8.80
2022-08-17T04:25:21.932Z,9.00
2022-08-17T04:27:49.232Z,10.45
2022-08-17T04:30:17.066Z,9.32
2022-08-17T04:33:12.552Z,9.90
2022-08-17T04:35:42.089Z,11.07
2022-08-17T04:38:10.882Z,9.80
2022-08-17T04:40:56.770Z,10.07
2022-08-17T04:43:24.747Z,8.95
2022-08-17T04:45:55.239Z,9.65
2022-08-17T04:48:29.782Z,9.88
2022-08-17T04:51:16.264Z,10.18
2022-08-17T04:53:44.888Z,10.00
2022-08-17T04:56:16.908Z,10.00
2022-08-17T04:58:48.507Z,9.25
2022-08-17T05:01:23.172Z,8.60
2022-08-17T05:03:53.271Z,11.30
2022-08-17T05:06:20.819Z,9.98
2022-08-17T05:08:48.198Z,9.00
2022-08-17T05:11:15.874Z,9.90
2022-08-17T05:13:43.491Z,9.80
2022-08-17T05:16:11.002Z,10.35
2022-08-17T05:18:39.147Z,10.02
2022-08-17T05:21:06.902Z,10.38
2022-08-17T05:23:42.020Z,10.98
2022-08-17T05:26:26.319Z,11.02
2022-08-17T05:28:58.504Z,10.88
2022-08-17T05:31:27.645Z,11.65
2022-08-17T05:33:55.077Z,10.68
2022-08-17T05:36:42.199Z,11.38
2022-08-17T05:39:16.368Z,11.55
2022-08-17T05:41:46.687Z,15.27
2022-08-17T05:44:14.466Z,13.85
2022-08-17T05:46:42.590Z,16.10
2022-08-17T05:49:19.043Z,16.42
2022-08-17T05:52:08.215Z,19.17
2022-08-17T05:54:49.238Z,19.42
2022-08-17T05:57:34.042Z,17.80
2022-08-17T06:00:05.612Z,17.45
2022-08-17T06:02:57.589Z,14.80
2022-08-17T06:05:41.974Z,21.42
2022-08-17T06:08:27.066Z,18.92
2022-08-17T06:11:00.648Z,16.55
2022-08-17T06:13:44.903Z,18.30
2022-08-17T06:16:28.268Z,16.45
2022-08-17T06:19:24.543Z,14.75
2022-08-17T06:21:53.534Z,14.75
2022-08-17T06:24:30.048Z,15.75
2022-08-17T06:26:59.702Z,14.07
2022-08-17T06:29:39.223Z,15.50
2022-08-17T06:32:08.574Z,14.23
2022-08-17T06:34:37.496Z,13.57
2022-08-17T06:37:19.097Z,13.88
2022-08-17T06:39:55.495Z,14.50
2022-08-17T06:42:58.832Z,12.30
2022-08-17T06:45:41.853Z,12.70
2022-08-17T06:48:25.398Z,12.20
2022-08-17T06:50:55.123Z,10.00
2022-08-17T06:53:45.717Z,8.27
2022-08-17T06:56:22.051Z,8.52
2022-08-17T06:58:49.993Z,7.70
2022-08-17T07:01:21.206Z,8.48
2022-08-17T07:03:55.957Z,8.32
2022-08-17T07:06:38.099Z,9.63
2022-08-17T07:09:16.473Z,8.52
2022-08-17T07:11:55.385Z,9.27
2022-08-17T07:14:36.588Z,9.20
2022-08-17T07:17:08.170Z,10.25
2022-08-17T07:19:39.767Z,10.18
2022-08-17T07:22:57.590Z,10.13
2022-08-17T07:25:22.606Z,9.68
2022-08-17T07:27:52.876Z,9.18
2022-08-17T07:30:21.402Z,9.27
2022-08-17T07:32:59.702Z,8.52
2022-08-17T07:35:37.841Z,8.73
2022-08-17T07:38:25.221Z,10.23
2022-08-17T07:41:03.489Z,10.18
2022-08-17T07:43:41.996Z,8.23
2022-08-17T07:47:00.371Z,9.30
2022-08-17T07:49:39.367Z,10.05
2022-08-17T07:52:51.910Z,9.13
2022-08-17T07:55:31.901Z,9.60
2022-08-17T07:58:00.130Z,9.52
2022-08-17T08:00:32.079Z,9.77
2022-08-17T08:03:23.739Z,9.82
2022-08-17T08:05:56.449Z,9.18
2022-08-17T08:08:34.083Z,8.80
2022-08-17T08:11:04.325Z,9.45
2022-08-17T08:13:32.409Z,7.50
2022-08-17T08:16:27.139Z,8.75
2022-08-17T08:18:59.432Z,9.20
2022-08-17T08:21:37.225Z,8.77
2022-08-17T08:24:13.085Z,8.32
2022-08-17T08:26:56.921Z,9.60
2022-08-17T08:30:06.289Z,9.30
2022-08-17T08:32:46.544Z,10.23
2022-08-17T08:35:37.006Z,8.80
2022-08-17T08:38:29.320Z,9.00
2022-08-17T08:41:08.675Z,9.48
2022-08-17T08:44:14.637Z,9.80
2022-08-17T08:46:48.312Z,10.02
2022-08-17T08:49:18.307Z,9.85
2022-08-17T08:51:48.646Z,10.07
2022-08-17T08:54:44.414Z,10.90
2022-08-17T08:57:34.311Z,11.00
2022-08-17T09:00:10.314Z,10.93
2022-08-17T09:02:43.311Z,10.40
2022-08-17T09:05:26.192Z,9.48
2022-08-17T09:08:24.599Z,9.73
2022-08-17T09:11:18.905Z,10.35
2022-08-17T09:14:21.769Z,9.15
2022-08-17T09:17:13.831Z,9.20
2022-08-17T09:19:54.416Z,9.35
2022-08-17T09:22:30.562Z,8.02
2022-08-17T09:25:12.261Z,7.63
2022-08-17T09:28:03.756Z,8.27
2022-08-17T09:30:45.537Z,7.05
2022-08-17T09:33:15.198Z,7.82
2022-08-17T09:35:51.249Z,6.65
2022-08-17T09:38:31.750Z,7.05
2022-08-17T09:41:26.615Z,7.38
2022-08-17T09:44:23.332Z,6.07
2022-08-17T09:47:01.120Z,6.90
2022-08-17T09:49:31.620Z,6.85
2022-08-17T09:54:39.495Z,8.75
2022-08-17T09:57:39.976Z,7.35
2022-08-17T10:00:13.308Z,6.83
2022-08-17T10:02:53.641Z,8.18
2022-08-17T10:05:37.759Z,8.02
2022-08-17T10:08:15.461Z,8.85
2022-08-17T10:10:56.454Z,7.75
2022-08-17T10:13:53.072Z,7.55
2022-08-17T10:16:38.857Z,7.93
2022-08-17T10:19:34.318Z,6.13
2022-08-17T10:22:34.508Z,5.80
2022-08-17T10:25:48.653Z,5.30
2022-08-17T10:28:20.998Z,5.57
2022-08-17T10:31:10.403Z,5.32
2022-08-17T10:34:20.620Z,4.57
2022-08-17T10:36:48.420Z,5.10
2022-08-17T10:39:22.798Z,4.00
2022-08-17T10:41:52.693Z,4.57
2022-08-17T10:44:37.347Z,4.72
2022-08-17T10:47:13.109Z,4.18
2022-08-17T10:49:47.624Z,4.70
2022-08-17T10:52:26.199Z,4.45
2022-08-17T10:54:59.114Z,4.03
2022-08-17T10:57:32.239Z,4.60
2022-08-17T11:00:00.004Z,3.83
2022-08-17T11:02:31.625Z,4.03
2022-08-17T11:05:14.075Z,4.30
2022-08-17T11:07:47.744Z,4.13
2022-08-17T11:10:25.126Z,4.07
2022-08-17T11:13:05.689Z,4.60
2022-08-17T11:16:08.277Z,3.63
2022-08-17T11:19:15.580Z,3.60
2022-08-17T11:22:31.267Z,4.45
2022-08-17T11:25:17.985Z,3.88
2022-08-17T11:27:47.177Z,3.40
2022-08-17T11:30:15.620Z,3.50
2022-08-17T11:32:47.773Z,4.35
2022-08-17T11:35:22.134Z,3.85
2022-08-17T11:38:14.073Z,3.95
2022-08-17T11:41:02.365Z,4.22
2022-08-17T11:43:42.930Z,4.22
2022-08-17T11:46:16.059Z,4.80
2022-08-17T11:49:11.371Z,4.05
2022-08-17T11:52:01.022Z,4.45
2022-08-17T11:57:25.367Z,3.55
2022-08-17T11:59:59.094Z,4.13
2022-08-17T12:02:35.398Z,3.72
2022-08-17T12:05:14.371Z,3.90
2022-08-17T12:08:08.554Z,3.85
2022-08-17T12:10:42.060Z,3.85
2022-08-17T12:13:14.906Z,3.90
2022-08-17T12:15:48.732Z,4.40
2022-08-17T12:18:21.278Z,3.70
2022-08-17T12:21:00.288Z,3.72
2022-08-17T12:23:44.136Z,4.43
2022-08-17T12:26:19.432Z,4.20
2022-08-17T12:28:51.864Z,4.00
2022-08-17T12:31:25.820Z,4.70
2022-08-17T12:33:53.166Z,4.32
2022-08-17T12:36:25.335Z,4.03
2022-08-17T12:39:14.630Z,4.82
2022-08-17T12:41:44.012Z,4.68
2022-08-17T12:44:12.190Z,4.20
2022-08-17T12:46:49.005Z,4.40
2022-08-17T12:49:33.151Z,4.63
2022-08-17T12:52:27.087Z,4.25
2022-08-17T12:55:21.281Z,4.20
2022-08-17T12:57:55.799Z,4.80
2022-08-17T13:00:34.979Z,4.60
2022-08-17T13:03:06.000Z,4.82
2022-08-17T13:05:38.298Z,4.65
2022-08-17T13:08:20.267Z,4.50
2022-08-17T13:10:55.711Z,5.05
2022-08-17T13:13:26.702Z,4.40
2022-08-17T13:15:59.135Z,4.65
2022-08-17T13:18:49.029Z,4.78
2022-08-17T13:21:19.692Z,4.93
2022-08-17T13:24:03.639Z,4.88
2022-08-17T13:26:38.457Z,5.03
2022-08-17T13:29:08.434Z,5.18
2022-08-17T13:31:52.691Z,5.63
2022-08-17T13:34:24.086Z,6.28
2022-08-17T13:37:19.888Z,6.10
2022-08-17T13:39:50.669Z,7.10
2022-08-17T13:42:51.880Z,6.03
2022-08-17T13:45:35.223Z,7.55
2022-08-17T13:48:07.623Z,6.03
2022-08-17T13:50:55.052Z,5.57
2022-08-17T13:53:28.117Z,6.88
2022-08-17T13:56:07.406Z,5.85
2022-08-17T13:59:00.349Z,6.05
2022-08-17T14:01:42.489Z,6.55
2022-08-17T14:04:18.235Z,6.25
2022-08-17T14:07:04.164Z,6.22
2022-08-17T14:09:37.585Z,6.35
2022-08-17T14:12:07.163Z,6.80
2022-08-17T14:14:34.632Z,6.22
2022-08-17T14:17:02.148Z,7.38
2022-08-17T14:19:29.586Z,14.50
2022-08-17T14:21:58.905Z,12.15
2022-08-17T14:24:31.386Z,9.73
2022-08-17T14:26:59.731Z,8.30
2022-08-17T14:29:28.945Z,6.88
2022-08-17T14:31:56.754Z,6.10
2022-08-17T14:34:24.517Z,6.32
2022-08-17T14:36:52.075Z,6.65
2022-08-17T14:39:19.519Z,6.28
2022-08-17T14:41:47.114Z,6.63
2022-08-17T14:44:14.577Z,7.10
2022-08-17T14:46:43.233Z,7.28
2022-08-17T14:49:11.828Z,6.68
2022-08-17T14:51:44.417Z,6.55
2022-08-17T14:54:29.434Z,5.57
2022-08-17T14:57:24.880Z,5.00
2022-08-17T14:59:50.699Z,6.70
2022-08-17T15:02:23.009Z,5.78
2022-08-17T15:05:01.868Z,7.43
2022-08-17T15:07:30.542Z,6.57
2022-08-17T15:10:02.035Z,6.55
2022-08-17T15:12:33.075Z,6.07
2022-08-17T15:17:44.781Z,7.43
2022-08-17T15:20:19.227Z,7.28
2022-08-17T15:22:49.437Z,6.97
2022-08-17T15:25:17.321Z,8.18
2022-08-17T15:27:45.004Z,8.65
2022-08-17T15:30:12.856Z,8.60
2022-08-17T15:32:41.463Z,8.60
2022-08-17T15:35:18.870Z,9.90
2022-08-17T15:37:53.857Z,9.63
2022-08-17T15:40:21.166Z,9.30
2022-08-17T15:42:48.641Z,11.55
2022-08-17T15:45:17.017Z,10.70
2022-08-17T15:47:44.843Z,11.93
2022-08-17T15:50:12.468Z,12.55
2022-08-17T15:52:40.726Z,15.80
2022-08-17T15:55:13.209Z,15.23
2022-08-17T15:57:40.871Z,14.15
2022-08-17T16:00:09.271Z,15.13
2022-08-17T16:03:14.352Z,14.50
2022-08-17T16:05:25.100Z,14.15
2022-08-17T16:07:53.161Z,12.95
2022-08-17T16:10:21.147Z,11.27
2022-08-17T16:12:49.442Z,11.38
2022-08-17T16:15:17.685Z,11.55
2022-08-17T16:17:45.626Z,11.10
2022-08-17T16:20:20.108Z,12.90
2022-08-17T16:22:49.093Z,14.27
2022-08-17T16:25:21.629Z,14.68
2022-08-17T16:27:53.900Z,13.68
2022-08-17T16:30:24.144Z,14.73
2022-08-17T16:32:52.909Z,14.73
2022-08-17T16:35:22.683Z,14.90
2022-08-17T16:37:49.956Z,14.48
2022-08-17T16:40:17.456Z,14.50
2022-08-17T16:42:45.555Z,16.20
2022-08-17T16:45:20.932Z,14.55
2022-08-17T16:47:50.197Z,14.68
2022-08-17T16:50:19.031Z,14.55
2022-08-17T16:52:48.504Z,14.48
2022-08-17T16:55:18.688Z,14.23
2022-08-17T16:57:50.056Z,14.90
2022-08-17T17:00:18.030Z,14.30
2022-08-17T17:02:47.358Z,14.50
2022-08-17T17:05:24.756Z,13.90
2022-08-17T17:08:07.740Z,13.30
2022-08-17T17:10:52.750Z,13.75
2022-08-17T17:13:48.058Z,13.40
2022-08-17T17:16:40.756Z,14.00
2022-08-17T17:19:18.143Z,13.18
2022-08-17T17:22:22.866Z,13.60
2022-08-17T17:25:25.435Z,13.77
2022-08-17T17:28:14.295Z,13.45
2022-08-17T17:30:49.486Z,14.60
2022-08-17T17:33:22.673Z,13.82
2022-08-17T17:35:55.839Z,12.38
2022-08-17T17:38:29.148Z,11.65
2022-08-17T17:41:02.999Z,9.48
2022-08-17T17:43:40.636Z,9.35
2022-08-17T17:46:29.288Z,9.35
2022-08-17T17:48:57.527Z,8.52
2022-08-17T17:52:11.070Z,9.10
2022-08-17T17:55:06.025Z,8.95
2022-08-17T17:58:02.608Z,9.05
2022-08-17T18:01:14.640Z,8.40
2022-08-17T18:03:44.997Z,9.23
2022-08-17T18:06:45.361Z,8.57
2022-08-17T18:11:59.922Z,8.30
2022-08-17T18:14:30.128Z,8.32
2022-08-17T18:16:58.319Z,8.68
2022-08-17T18:19:26.865Z,9.50
2022-08-17T18:22:20.614Z,8.60
2022-08-17T18:24:49.698Z,9.00
2022-08-17T18:27:32.183Z,9.25
2022-08-17T18:30:03.430Z,9.15
2022-08-17T18:32:40.044Z,10.52
2022-08-17T18:35:10.393Z,10.70
2022-08-17T18:37:47.582Z,11.23
2022-08-17T18:40:18.436Z,13.55
2022-08-17T18:43:06.189Z,12.60
2022-08-17T18:45:46.488Z,11.88
2022-08-17T18:48:21.400Z,9.60
2022-08-17T18:50:53.324Z,9.48
2022-08-17T18:53:31.726Z,9.15
2022-08-17T18:56:31.573Z,9.45
2022-08-17T18:59:02.088Z,9.70
2022-08-17T19:01:53.533Z,9.57
2022-08-17T19:04:35.159Z,7.75
2022-08-17T19:07:08.896Z,7.95
2022-08-17T19:09:45.468Z,7.75
2022-08-17T19:12:26.908Z,7.20
2022-08-17T19:14:56.006Z,6.85
2022-08-17T19:17:50.116Z,7.15
2022-08-17T19:20:20.195Z,7.45
2022-08-17T19:23:13.109Z,7.47
2022-08-17T19:25:45.388Z,7.30
2022-08-17T19:28:32.756Z,8.10
2022-08-17T19:31:04.905Z,8.40
2022-08-17T19:33:32.368Z,8.30
2022-08-17T19:36:10.368Z,7.70
2022-08-17T19:38:45.967Z,8.05
2022-08-17T19:41:21.904Z,7.38
2022-08-17T19:43:55.265Z,8.35
2022-08-17T19:47:10.476Z,8.60
2022-08-17T19:49:55.750Z,8.25
2022-08-17T19:52:42.433Z,9.20
2022-08-17T19:55:22.363Z,8.43
2022-08-17T19:58:04.889Z,9.18
2022-08-17T20:00:34.099Z,9.05
2022-08-17T20:03:25.553Z,9.20
2022-08-17T20:06:12.175Z,10.70
2022-08-17T20:08:57.071Z,10.05
2022-08-17T20:11:49.470Z,10.27
2022-08-17T20:14:20.660Z,10.63
2022-08-17T20:19:28.015Z,10.07
2022-08-17T20:22:05.992Z,9.63
2022-08-17T20:24:42.169Z,10.07
2022-08-17T20:27:12.736Z,11.70
2022-08-17T20:29:55.238Z,11.60
2022-08-17T20:32:48.706Z,11.98
2022-08-17T20:35:26.221Z,11.18
2022-08-17T20:38:02.012Z,10.30
2022-08-17T20:40:38.488Z,11.82
2022-08-17T20:43:34.914Z,12.02
2022-08-17T20:46:17.425Z,11.13
2022-08-17T20:48:46.700Z,11.15
2022-08-17T20:51:17.345Z,11.25
2022-08-17T20:53:47.626Z,11.32
2022-08-17T20:56:49.188Z,10.43
2022-08-17T20:59:25.960Z,10.93
2022-08-17T21:02:08.916Z,10.82
2022-08-17T21:04:59.908Z,10.35
2022-08-17T21:07:42.771Z,11.02
2022-08-17T21:10:24.010Z,11.18
2022-08-17T21:12:54.430Z,10.50
2022-08-17T21:15:32.774Z,11.30
2022-08-17T21:18:23.357Z,11.23
2022-08-17T21:21:17.435Z,10.90
2022-08-17T21:24:03.327Z,11.75
2022-08-17T21:27:00.237Z,14.77
2022-08-17T21:29:32.562Z,13.57
2022-08-17T21:32:05.219Z,15.02
2022-08-17T21:34:33.122Z,17.30
2022-08-17T21:37:18.929Z,17.92
2022-08-17T21:39:54.271Z,18.90
2022-08-17T21:42:26.553Z,21.17
2022-08-17T21:44:54.542Z,20.27
2022-08-17T21:47:27.175Z,21.98
2022-08-17T21:49:55.548Z,21.13
2022-08-17T21:52:24.209Z,19.88
2022-08-17T21:55:02.508Z,19.00
2022-08-17T21:57:30.026Z,17.00
2022-08-17T21:59:58.955Z,16.52
2022-08-17T22:02:51.339Z,16.50
2022-08-17T22:05:29.184Z,15.60
2022-08-17T22:08:07.760Z,16.55
2022-08-17T22:10:45.878Z,15.73
2022-08-17T22:13:19.788Z,17.30
2022-08-17T22:15:49.257Z,16.33
2022-08-17T22:18:20.080Z,14.32
2022-08-17T22:20:51.956Z,12.93
2022-08-17T22:23:46.253Z,13.27
2022-08-17T22:26:15.653Z,11.70
2022-08-17T22:28:45.814Z,11.70
2022-08-17T22:31:18.320Z,10.90
2022-08-17T22:34:07.659Z,10.82
2022-08-17T22:36:36.207Z,10.80
2022-08-17T22:39:09.666Z,10.23
2022-08-17T22:41:37.998Z,11.15
2022-08-17T22:44:15.728Z,11.88
2022-08-17T22:47:11.299Z,11.05
2022-08-17T22:49:54.645Z,12.10
2022-08-17T22:52:29.231Z,12.10
2022-08-17T22:55:35.296Z,12.38
2022-08-17T22:58:27.718Z,11.32
2022-08-17T23:00:55.802Z,11.32
2022-08-17T23:03:24.857Z,11.88
2022-08-17T23:06:07.072Z,11.48
2022-08-17T23:08:39.534Z,12.35
2022-08-17T23:11:06.984Z,11.07
2022-08-17T23:13:34.386Z,11.43
2022-08-17T23:16:03.341Z,10.70
2022-08-17T23:18:30.742Z,11.40
2022-08-17T23:20:58.002Z,11.80
2022-08-17T23:23:26.553Z,11.15
2022-08-17T23:25:54.768Z,11.35
2022-08-17T23:28:22.201Z,11.15
2022-08-17T23:30:49.460Z,11.45
2022-08-17T23:33:25.652Z,10.43
2022-08-17T23:35:54.095Z,10.82
2022-08-17T23:38:22.434Z,9.48
2022-08-17T23:40:49.679Z,9.77
2022-08-17T23:43:25.520Z,9.10
2022-08-17T23:45:57.590Z,8.85
2022-08-17T23:48:35.115Z,9.07
2022-08-17T23:51:09.116Z,9.45
2022-08-17T23:53:36.782Z,11.13
2022-08-17T23:56:10.375Z,11.23
2022-08-17T23:58:40.442Z,11.55
